Armuchee, Georgia
Current Conditions -  °F | °C
As of 5:53 PM on Wednesday 22 Oct 2014 (Local Time) from KRMG Reporting Station
Clear Clear  
Wind Chill: 64°   Ceiling: Unl
Heat Index: 64°   Visibility: 10mi
Dew Point: 40°   Wind: 15mph
Humidity: 41%   Direction: 20°NNE
Pressure: 30.1"   Gusts: NA
Location:  34.39°N, 85.18°W
Report Text: KRMG 222153Z AUTO 02013KT 10SM CLR 18/04 A3010 RMK AO2 SLP190 T01780044
Loading
Personal Weather Stations






























Interactive Weather Map New forecast layout! Learn more

10-Day Weather Forecast

Advertisements
Track Severe Weather on mobile